createdAt,value
2019-04-07T00:00:40.998Z,8.02
2019-04-07T00:03:13.826Z,7.98
2019-04-07T00:05:43.031Z,7.93
2019-04-07T00:08:16.897Z,7.90
2019-04-07T00:10:46.765Z,7.93
2019-04-07T00:13:16.110Z,8.00
2019-04-07T00:15:45.245Z,8.08
2019-04-07T00:18:15.452Z,8.12
2019-04-07T00:20:44.713Z,8.14
2019-04-07T00:23:14.135Z,8.15
2019-04-07T00:25:44.318Z,8.12
2019-04-07T00:28:13.491Z,8.12
2019-04-07T00:30:42.616Z,8.16
2019-04-07T00:33:11.686Z,8.16
2019-04-07T00:35:40.801Z,8.22
2019-04-07T00:38:09.873Z,8.21
2019-04-07T00:40:39.175Z,8.17
2019-04-07T00:43:08.791Z,8.17
2019-04-07T00:45:37.981Z,8.20
2019-04-07T00:48:08.200Z,8.15
2019-04-07T00:50:37.242Z,8.18
2019-04-07T00:53:06.552Z,8.12
2019-04-07T00:55:35.933Z,7.97
2019-04-07T00:58:05.045Z,7.95
2019-04-07T01:00:35.703Z,7.81
2019-04-07T01:03:04.803Z,7.77
2019-04-07T01:05:38.522Z,7.67
2019-04-07T01:08:05.407Z,7.77
2019-04-07T01:10:34.815Z,7.64
2019-04-07T01:13:04.541Z,7.57
2019-04-07T01:15:35.205Z,7.48
2019-04-07T01:18:04.372Z,7.38
2019-04-07T01:20:33.983Z,7.43
2019-04-07T01:23:03.064Z,7.45
2019-04-07T01:25:32.092Z,7.55
2019-04-07T01:28:01.126Z,7.51
2019-04-07T01:30:30.424Z,7.45
2019-04-07T01:33:00.032Z,7.55
2019-04-07T01:35:30.355Z,7.69
2019-04-07T01:38:01.532Z,7.55
2019-04-07T01:40:31.081Z,7.66
2019-04-07T01:43:17.501Z,7.73
2019-04-07T01:46:05.518Z,7.70
2019-04-07T01:48:53.210Z,7.68
2019-04-07T01:51:41.312Z,7.42
2019-04-07T01:54:28.350Z,7.42
2019-04-07T01:57:15.620Z,7.51
2019-04-07T02:00:07.188Z,7.70
2019-04-07T02:02:58.286Z,7.74
2019-04-07T02:05:57.174Z,7.86
2019-04-07T02:08:33.835Z,7.78
2019-04-07T02:11:23.229Z,7.84
2019-04-07T02:14:30.275Z,7.62
2019-04-07T02:17:11.952Z,7.31
2019-04-07T02:19:46.009Z,7.42
2019-04-07T02:22:32.759Z,7.36
2019-04-07T02:25:27.229Z,7.33
2019-04-07T02:28:13.816Z,7.44
2019-04-07T02:31:08.115Z,7.58
2019-04-07T02:33:42.538Z,7.65
2019-04-07T02:36:31.863Z,7.64
2019-04-07T02:39:09.141Z,7.84
2019-04-07T02:41:49.295Z,7.89
2019-04-07T02:44:37.484Z,7.80
2019-04-07T02:47:28.515Z,8.06
2019-04-07T02:50:19.579Z,8.23
2019-04-07T02:53:05.795Z,7.96
2019-04-07T02:56:09.963Z,8.06
2019-04-07T02:59:04.652Z,8.05
2019-04-07T03:01:52.726Z,7.99
2019-04-07T03:04:44.426Z,8.02
2019-04-07T03:07:22.190Z,7.94
2019-04-07T03:10:09.014Z,7.89
2019-04-07T03:12:55.662Z,7.88
2019-04-07T03:15:54.578Z,7.68
2019-04-07T03:18:46.264Z,7.57
2019-04-07T03:21:22.856Z,7.59
2019-04-07T03:24:11.221Z,7.48
2019-04-07T03:26:59.461Z,7.37
2019-04-07T03:29:47.173Z,7.34
2019-04-07T03:32:32.439Z,7.25
2019-04-07T03:35:25.655Z,7.18
2019-04-07T03:38:08.964Z,7.20
2019-04-07T03:40:51.635Z,7.17
2019-04-07T03:43:59.143Z,7.11
2019-04-07T03:46:43.095Z,7.12
2019-04-07T03:49:29.792Z,7.08
2019-04-07T03:52:11.843Z,7.09
2019-04-07T03:54:58.889Z,7.08
2019-04-07T03:57:41.601Z,7.05
2019-04-07T04:00:56.284Z,7.05
2019-04-07T04:03:38.597Z,6.98
2019-04-07T04:06:26.768Z,6.88
2019-04-07T04:09:15.469Z,6.87
2019-04-07T04:11:56.895Z,6.86
2019-04-07T04:14:31.125Z,6.81
2019-04-07T04:17:02.041Z,6.74
2019-04-07T04:19:31.301Z,6.65
2019-04-07T04:22:00.659Z,6.62
2019-04-07T04:24:30.361Z,6.67
2019-04-07T04:26:59.457Z,6.68
2019-04-07T04:29:29.887Z,6.51
2019-04-07T04:31:59.751Z,6.56
2019-04-07T04:34:28.917Z,6.67
2019-04-07T04:36:57.988Z,6.81
2019-04-07T04:39:27.257Z,6.91
2019-04-07T04:41:56.363Z,6.93
2019-04-07T04:44:25.707Z,6.67
2019-04-07T04:46:54.885Z,6.73
2019-04-07T04:49:24.017Z,6.76
2019-04-07T04:51:54.021Z,6.62
2019-04-07T04:54:23.293Z,6.69
2019-04-07T04:56:52.410Z,6.74
2019-04-07T04:59:21.700Z,6.82
2019-04-07T05:01:51.270Z,6.97
2019-04-07T05:04:20.735Z,7.04
2019-04-07T05:06:50.008Z,7.04
2019-04-07T05:09:20.098Z,7.06
2019-04-07T05:11:49.659Z,7.11
2019-04-07T05:14:18.787Z,7.17
2019-04-07T05:16:48.109Z,7.23
2019-04-07T05:19:17.227Z,7.23
2019-04-07T05:21:46.978Z,7.24
2019-04-07T05:24:16.915Z,7.28
2019-04-07T05:26:46.479Z,7.34
2019-04-07T05:29:15.907Z,7.34
2019-04-07T05:31:45.888Z,7.38
2019-04-07T05:34:20.398Z,7.42
2019-04-07T05:36:58.773Z,7.53
2019-04-07T05:39:29.551Z,7.54
2019-04-07T05:41:59.213Z,7.37
2019-04-07T05:44:29.597Z,7.44
2019-04-07T05:46:58.759Z,7.55
2019-04-07T05:49:28.203Z,7.60
2019-04-07T05:51:59.621Z,7.66
2019-04-07T05:54:28.643Z,7.87
2019-04-07T05:57:01.175Z,7.94
2019-04-07T05:59:28.799Z,8.01
2019-04-07T06:02:00.771Z,8.08
2019-04-07T06:04:29.154Z,8.23
2019-04-07T06:06:58.322Z,8.28
2019-04-07T06:09:32.826Z,8.35
2019-04-07T06:12:01.095Z,8.52
2019-04-07T06:14:32.326Z,8.68
2019-04-07T06:17:02.098Z,8.64
2019-04-07T06:19:40.541Z,8.71
2019-04-07T06:22:07.837Z,8.82
2019-04-07T06:24:38.160Z,8.87
2019-04-07T06:27:07.456Z,8.71
2019-04-07T06:29:36.665Z,8.82
2019-04-07T06:32:09.132Z,9.02
2019-04-07T06:34:39.759Z,9.12
2019-04-07T06:37:07.740Z,9.25
2019-04-07T06:39:39.009Z,9.39
2019-04-07T06:42:08.540Z,9.42
2019-04-07T06:44:38.425Z,9.34
2019-04-07T06:47:26.515Z,9.43
2019-04-07T06:50:05.349Z,9.47
2019-04-07T06:53:05.458Z,9.62
2019-04-07T06:55:59.137Z,9.56
2019-04-07T06:58:32.026Z,9.78
2019-04-07T07:01:19.056Z,9.66
2019-04-07T07:04:09.634Z,9.66
2019-04-07T07:06:58.942Z,9.82
2019-04-07T07:10:00.144Z,9.68
2019-04-07T07:12:43.957Z,10.05
2019-04-07T07:15:20.932Z,9.77
2019-04-07T07:18:21.257Z,10.03
2019-04-07T07:21:14.447Z,9.98
2019-04-07T07:23:47.051Z,10.31
2019-04-07T07:26:16.001Z,10.24
2019-04-07T07:28:45.790Z,10.26
2019-04-07T07:31:15.488Z,10.27
2019-04-07T07:33:44.874Z,10.19
2019-04-07T07:36:18.362Z,10.36
2019-04-07T07:38:57.569Z,10.03
2019-04-07T07:41:20.653Z,10.55
2019-04-07T07:43:48.984Z,11.02
2019-04-07T07:46:20.756Z,10.89
2019-04-07T07:48:50.097Z,10.98
2019-04-07T07:51:21.440Z,10.74
2019-04-07T07:53:57.174Z,11.22
2019-04-07T07:56:25.561Z,10.72
2019-04-07T07:58:56.107Z,11.08
2019-04-07T08:01:27.586Z,11.55
2019-04-07T08:03:56.858Z,11.47
2019-04-07T08:06:26.667Z,11.06
2019-04-07T08:09:07.400Z,11.53
2019-04-07T08:11:30.809Z,11.51
2019-04-07T08:13:58.683Z,11.39
2019-04-07T08:16:31.222Z,11.62
2019-04-07T08:19:01.300Z,11.84
2019-04-07T08:21:32.705Z,11.94
2019-04-07T08:24:02.547Z,11.72
2019-04-07T08:26:33.643Z,11.77
2019-04-07T08:29:05.622Z,11.89
2019-04-07T08:31:37.273Z,11.97
2019-04-07T08:34:06.545Z,12.27
2019-04-07T08:36:35.627Z,12.12
2019-04-07T08:39:18.420Z,11.66
2019-04-07T08:41:41.175Z,11.69
2019-04-07T08:44:09.460Z,12.02
2019-04-07T08:46:41.668Z,12.29
2019-04-07T08:49:11.518Z,12.58
2019-04-07T08:51:43.781Z,12.49
2019-04-07T08:54:15.743Z,14.29
2019-04-07T08:56:46.859Z,14.12
2019-04-07T08:59:18.274Z,14.03
2019-04-07T09:01:58.627Z,13.84
2019-04-07T09:04:29.487Z,13.79
2019-04-07T09:07:16.450Z,12.72
2019-04-07T09:10:17.047Z,12.88
2019-04-07T09:12:49.938Z,12.86
2019-04-07T09:15:28.638Z,13.13
2019-04-07T09:18:07.122Z,13.19
2019-04-07T09:20:48.410Z,12.61
2019-04-07T09:23:29.722Z,13.02
2019-04-07T09:26:22.590Z,12.92
2019-04-07T09:29:26.056Z,13.63
2019-04-07T09:36:09.181Z,13.30
2019-04-07T09:39:50.810Z,13.34
2019-04-07T09:42:24.375Z,13.20
2019-04-07T09:45:26.468Z,13.73
2019-04-07T09:48:17.734Z,13.45
2019-04-07T09:51:13.596Z,13.53
2019-04-07T09:53:50.726Z,13.33
2019-04-07T09:56:40.654Z,13.65
2019-04-07T09:59:29.679Z,13.40
2019-04-07T10:02:18.479Z,13.80
2019-04-07T10:05:05.481Z,14.15
2019-04-07T10:07:46.846Z,14.45
2019-04-07T10:10:38.313Z,14.52
2019-04-07T10:13:51.183Z,14.08
2019-04-07T10:16:54.967Z,13.87
2019-04-07T10:20:14.492Z,13.53
2019-04-07T10:22:54.174Z,13.04
2019-04-07T10:25:31.324Z,13.63
2019-04-07T10:28:22.390Z,13.50
2019-04-07T10:31:03.418Z,13.47
2019-04-07T10:33:50.482Z,13.94
2019-04-07T10:37:01.565Z,13.54
2019-04-07T10:39:37.082Z,13.58
2019-04-07T10:42:15.168Z,14.08
2019-04-07T10:45:03.579Z,13.96
2019-04-07T10:47:48.829Z,14.66
2019-04-07T10:50:25.695Z,14.15
2019-04-07T10:53:16.004Z,13.86
2019-04-07T10:55:52.133Z,14.61
2019-04-07T10:58:47.200Z,15.14
2019-04-07T11:01:29.718Z,15.64
2019-04-07T11:04:36.030Z,16.08
2019-04-07T11:07:24.949Z,16.73
2019-04-07T11:10:03.650Z,17.27
2019-04-07T11:13:06.174Z,17.74
2019-04-07T11:15:52.966Z,18.22
2019-04-07T11:18:47.609Z,18.40
2019-04-07T11:21:39.259Z,18.46
2019-04-07T11:24:44.014Z,18.81
2019-04-07T11:27:45.087Z,18.43
2019-04-07T11:30:19.973Z,18.16
2019-04-07T11:33:17.111Z,17.33
2019-04-07T11:36:06.006Z,17.23
2019-04-07T11:38:45.225Z,16.93
2019-04-07T11:41:29.342Z,16.81
2019-04-07T11:44:22.895Z,17.41
2019-04-07T11:47:20.693Z,16.89
2019-04-07T11:50:12.484Z,16.92
2019-04-07T11:53:07.574Z,17.67
2019-04-07T11:56:10.193Z,18.09
2019-04-07T11:59:15.242Z,18.22
2019-04-07T12:01:59.774Z,16.99
2019-04-07T12:05:01.093Z,17.37
2019-04-07T12:07:57.194Z,17.39
2019-04-07T12:10:37.712Z,17.35
2019-04-07T12:13:16.877Z,17.23
2019-04-07T12:16:03.735Z,17.71
2019-04-07T12:18:53.159Z,18.01
2019-04-07T12:21:45.029Z,18.91
2019-04-07T12:24:30.793Z,19.51
2019-04-07T12:27:22.400Z,19.12
2019-04-07T12:30:02.385Z,19.57
2019-04-07T12:32:37.755Z,18.45
2019-04-07T12:35:33.024Z,19.28
2019-04-07T12:38:23.001Z,17.78
2019-04-07T12:41:14.351Z,17.29
2019-04-07T12:43:50.794Z,17.33
2019-04-07T12:46:38.741Z,18.16
2019-04-07T12:49:17.231Z,18.15
2019-04-07T12:52:19.513Z,17.99
2019-04-07T12:55:18.015Z,18.13
2019-04-07T12:58:09.762Z,17.97
2019-04-07T13:00:54.430Z,18.88
2019-04-07T13:03:34.391Z,17.32
2019-04-07T13:06:25.229Z,18.51
2019-04-07T13:09:16.388Z,18.89
2019-04-07T13:11:57.091Z,19.26
2019-04-07T13:14:44.054Z,19.79
2019-04-07T13:17:35.837Z,19.90
2019-04-07T13:20:21.084Z,19.99
2019-04-07T13:22:58.761Z,20.25
2019-04-07T13:25:45.355Z,18.91
2019-04-07T13:28:19.372Z,19.90
2019-04-07T13:31:06.649Z,19.57
2019-04-07T13:33:45.817Z,19.49
2019-04-07T13:36:31.345Z,18.73
2019-04-07T13:39:12.118Z,18.70
2019-04-07T13:41:55.391Z,18.02
2019-04-07T13:44:45.969Z,17.74
2019-04-07T13:47:33.006Z,17.22
2019-04-07T13:50:29.982Z,17.05
2019-04-07T13:53:06.696Z,17.09
2019-04-07T13:55:56.038Z,17.09
2019-04-07T13:58:37.672Z,16.35
2019-04-07T14:01:18.109Z,16.21
2019-04-07T14:04:03.527Z,16.37
2019-04-07T14:06:38.074Z,16.18
2019-04-07T14:09:35.329Z,16.58
2019-04-07T14:12:32.558Z,16.74
2019-04-07T14:15:14.385Z,16.87
2019-04-07T14:17:52.542Z,16.65
2019-04-07T14:20:40.343Z,16.56
2019-04-07T14:23:31.288Z,16.57
2019-04-07T14:26:18.960Z,17.16
2019-04-07T14:28:58.878Z,17.27
2019-04-07T14:31:45.564Z,17.13
2019-04-07T14:34:40.247Z,16.66
2019-04-07T14:37:20.408Z,16.96
2019-04-07T14:39:56.648Z,17.04
2019-04-07T14:42:41.790Z,16.88
2019-04-07T14:45:17.222Z,17.16
2019-04-07T14:48:17.445Z,16.98
2019-04-07T14:51:11.651Z,17.08
2019-04-07T14:54:02.973Z,16.73
2019-04-07T14:56:55.354Z,16.75
2019-04-07T14:59:42.842Z,16.79
2019-04-07T15:02:12.741Z,16.77
2019-04-07T15:04:54.343Z,16.63
2019-04-07T15:07:42.393Z,16.39
2019-04-07T15:10:19.283Z,16.14
2019-04-07T15:12:55.701Z,16.04
2019-04-07T15:15:25.238Z,16.19
2019-04-07T15:17:54.447Z,16.16
2019-04-07T15:20:25.069Z,16.26
2019-04-07T15:22:54.230Z,16.19
2019-04-07T15:25:23.336Z,16.27
2019-04-07T15:27:55.759Z,16.14
2019-04-07T15:30:24.238Z,16.08
2019-04-07T15:32:57.795Z,16.15
2019-04-07T15:35:26.483Z,16.19
2019-04-07T15:37:59.163Z,16.14
2019-04-07T15:40:28.290Z,15.92
2019-04-07T15:43:01.478Z,16.22
2019-04-07T15:45:28.725Z,16.09
2019-04-07T15:48:00.633Z,16.05
2019-04-07T15:50:30.466Z,15.96
2019-04-07T15:53:01.526Z,15.84
2019-04-07T15:55:43.954Z,15.91
2019-04-07T15:58:03.111Z,15.92
2019-04-07T16:00:34.744Z,15.80
2019-04-07T16:03:02.923Z,15.96
2019-04-07T16:05:38.415Z,16.01
2019-04-07T16:08:04.803Z,15.94
2019-04-07T16:10:34.810Z,15.78
2019-04-07T16:13:04.678Z,15.76
2019-04-07T16:15:35.039Z,15.56
2019-04-07T16:18:07.302Z,15.54
2019-04-07T16:20:40.282Z,15.39
2019-04-07T16:23:08.294Z,15.39
2019-04-07T16:25:39.551Z,15.38
2019-04-07T16:28:13.131Z,15.14
2019-04-07T16:30:40.840Z,15.21
2019-04-07T16:33:10.090Z,15.06
2019-04-07T16:35:39.820Z,14.97
2019-04-07T16:38:10.892Z,14.91
2019-04-07T16:40:41.318Z,14.88
2019-04-07T16:43:16.127Z,14.92
2019-04-07T16:45:44.947Z,14.85
2019-04-07T16:48:17.375Z,14.89
2019-04-07T16:50:51.109Z,14.84
2019-04-07T16:53:20.563Z,14.98
2019-04-07T16:55:53.738Z,14.93
2019-04-07T16:58:22.863Z,15.02
2019-04-07T17:00:53.654Z,14.96
2019-04-07T17:03:23.638Z,14.98
2019-04-07T17:05:57.505Z,15.05
2019-04-07T17:08:26.692Z,14.91
2019-04-07T17:10:56.072Z,14.92
2019-04-07T17:13:34.804Z,14.81
2019-04-07T17:15:57.895Z,14.90
2019-04-07T17:18:39.094Z,14.81
2019-04-07T17:21:14.016Z,14.85
2019-04-07T17:23:45.876Z,14.75
2019-04-07T17:26:16.104Z,14.92
2019-04-07T17:28:50.011Z,14.74
2019-04-07T17:31:21.760Z,14.69
2019-04-07T17:33:51.255Z,14.74
2019-04-07T17:36:22.799Z,14.71
2019-04-07T17:39:11.555Z,14.73
2019-04-07T17:41:42.144Z,14.61
2019-04-07T17:44:35.150Z,14.59
2019-04-07T17:47:39.344Z,14.62
2019-04-07T17:50:33.779Z,14.58
2019-04-07T17:53:25.328Z,14.53
2019-04-07T17:56:14.750Z,14.44
2019-04-07T17:59:13.056Z,14.29
2019-04-07T18:01:56.398Z,14.25
2019-04-07T18:04:53.900Z,14.22
2019-04-07T18:07:42.805Z,14.11
2019-04-07T18:10:29.748Z,13.99
2019-04-07T18:13:12.448Z,13.81
2019-04-07T18:15:59.883Z,13.77
2019-04-07T18:18:44.351Z,13.70
2019-04-07T18:21:33.517Z,13.70
2019-04-07T18:24:23.066Z,13.46
2019-04-07T18:27:11.002Z,13.30
2019-04-07T18:30:00.622Z,13.21
2019-04-07T18:32:41.779Z,13.08
2019-04-07T18:35:33.125Z,12.95
2019-04-07T18:38:18.463Z,12.76
2019-04-07T18:41:12.930Z,12.44
2019-04-07T18:44:04.581Z,12.31
2019-04-07T18:46:42.227Z,12.22
2019-04-07T18:49:36.584Z,12.07
2019-04-07T18:52:13.590Z,11.98
2019-04-07T18:55:16.584Z,11.84
2019-04-07T18:57:58.480Z,11.77
2019-04-07T19:00:50.680Z,11.67
2019-04-07T19:03:38.552Z,11.55
2019-04-07T19:06:25.867Z,11.44
2019-04-07T19:09:01.423Z,11.33
2019-04-07T19:12:06.513Z,11.24
2019-04-07T19:14:56.188Z,11.18
2019-04-07T19:17:28.116Z,11.18
2019-04-07T19:20:30.431Z,11.31
2019-04-07T19:23:10.999Z,11.31
2019-04-07T19:25:57.736Z,10.90
2019-04-07T19:28:51.863Z,10.81
2019-04-07T19:31:43.778Z,10.68
2019-04-07T19:34:47.267Z,10.55
2019-04-07T19:37:28.306Z,10.73
2019-04-07T19:40:19.039Z,10.95
2019-04-07T19:43:05.923Z,11.00
2019-04-07T19:45:52.565Z,11.14
2019-04-07T19:48:42.376Z,11.18
2019-04-07T19:51:16.504Z,11.40
2019-04-07T19:54:07.937Z,11.60
2019-04-07T19:57:22.376Z,11.77
2019-04-07T20:00:26.141Z,11.64
2019-04-07T20:03:22.163Z,11.68
2019-04-07T20:06:29.817Z,11.70
2019-04-07T20:09:17.134Z,11.69
2019-04-07T20:12:00.533Z,11.81
2019-04-07T20:15:01.931Z,11.73
2019-04-07T20:17:53.387Z,11.77
2019-04-07T20:20:40.587Z,11.74
2019-04-07T20:23:34.205Z,11.81
2019-04-07T20:26:22.554Z,11.69
2019-04-07T20:29:05.174Z,11.73
2019-04-07T20:31:57.340Z,11.77
2019-04-07T20:34:45.701Z,11.69
2019-04-07T20:37:35.505Z,11.53
2019-04-07T20:40:44.303Z,11.73
2019-04-07T20:43:35.156Z,11.67
2019-04-07T20:46:31.991Z,11.81
2019-04-07T20:49:23.224Z,11.76
2019-04-07T20:52:25.363Z,11.65
2019-04-07T20:55:08.482Z,11.59
2019-04-07T20:58:17.298Z,11.68
2019-04-07T21:01:00.556Z,11.68
2019-04-07T21:03:51.629Z,11.63
2019-04-07T21:06:40.579Z,11.63
2019-04-07T21:09:31.632Z,11.55
2019-04-07T21:12:23.230Z,11.55
2019-04-07T21:15:04.487Z,11.53
2019-04-07T21:17:46.354Z,11.40
2019-04-07T21:20:30.611Z,11.45
2019-04-07T21:23:19.915Z,11.37
2019-04-07T21:26:08.492Z,11.40
2019-04-07T21:28:59.361Z,11.30
2019-04-07T21:31:46.766Z,11.47
2019-04-07T21:34:38.657Z,11.44
2019-04-07T21:37:23.053Z,11.31
2019-04-07T21:40:04.110Z,11.22
2019-04-07T21:42:54.840Z,11.22
2019-04-07T21:45:40.655Z,11.12
2019-04-07T21:48:22.580Z,11.27
2019-04-07T21:51:15.401Z,11.24
2019-04-07T21:53:53.011Z,11.08
2019-04-07T21:56:46.013Z,10.94
2019-04-07T21:59:39.636Z,10.98
2019-04-07T22:02:15.352Z,10.95
2019-04-07T22:04:54.629Z,10.89
2019-04-07T22:07:46.737Z,10.83
2019-04-07T22:10:18.761Z,10.86
2019-04-07T22:12:47.769Z,10.84
2019-04-07T22:15:17.297Z,10.88
2019-04-07T22:17:47.887Z,10.83
2019-04-07T22:20:20.289Z,10.79
2019-04-07T22:22:49.514Z,10.79
2019-04-07T22:25:26.949Z,10.79
2019-04-07T22:27:56.633Z,10.71
2019-04-07T22:30:36.068Z,10.67
2019-04-07T22:33:04.193Z,10.68
2019-04-07T22:35:34.535Z,10.74
2019-04-07T22:38:05.156Z,10.72
2019-04-07T22:40:38.791Z,10.73
2019-04-07T22:43:07.167Z,10.68
2019-04-07T22:45:36.990Z,10.55
2019-04-07T22:48:08.261Z,10.65
2019-04-07T22:50:38.475Z,10.66
2019-04-07T22:53:07.958Z,10.67
2019-04-07T22:55:37.762Z,10.58
2019-04-07T22:58:07.514Z,10.58
2019-04-07T23:00:37.130Z,10.53
2019-04-07T23:03:06.127Z,10.43
2019-04-07T23:05:35.301Z,10.45
2019-04-07T23:08:04.378Z,10.36
2019-04-07T23:10:33.713Z,10.33
2019-04-07T23:13:03.636Z,10.27
2019-04-07T23:15:41.283Z,10.27
2019-04-07T23:18:03.601Z,10.24
2019-04-07T23:20:35.532Z,10.25
2019-04-07T23:23:06.748Z,10.20
2019-04-07T23:25:36.755Z,10.11
2019-04-07T23:28:06.918Z,10.04
2019-04-07T23:30:36.026Z,9.89
2019-04-07T23:33:05.038Z,9.90
2019-04-07T23:35:35.029Z,9.87
2019-04-07T23:38:04.132Z,9.79
2019-04-07T23:40:34.243Z,9.73
2019-04-07T23:43:03.316Z,9.70
2019-04-07T23:45:32.373Z,9.63
2019-04-07T23:48:02.004Z,9.53
2019-04-07T23:50:31.511Z,9.54
2019-04-07T23:53:21.794Z,9.47
2019-04-07T23:55:50.845Z,9.29
2019-04-07T23:58:20.977Z,9.22
